Terminal Aerodrome Forecast
Issued by NWS Louisville, KY

Home | Current Version | Previous Version | Text Only | Print | Product List | Glossary On
Versions: 1 2 3 4 5 6 7 8 9 10 11 12 13 14
482
FTUS43 KLMK 240523
TAFLEX
TAF
KLEX 240523Z 2406/2506 VRB03KT P6SM FEW250
     FM241500 22006KT P6SM SCT050
      TEMPO 2420/2424 BKN050
     FM250100 20003KT P6SM FEW250=

USA.gov is the U.S. government's official web portal to all federal, state and local government web resources and services.